• Join FlightAware (Why Join?)
  • Login
  • US Flag 
02:44PM EDT


 

Airport Tracker/Info


-or-


 

Live Flight TrackerFlight Track Log ✈ TAM3217 ✈ 30-Aug-2013 ✈ SBSV / SSA - SBCF / CNF

Flight Track Log - Related Links

Times and Time Zones

All times are in EDT time to prevent confusion due to time zone crossing. See the TAM3217 flight status page for this flight to view local times or setup timezone preferences in your user account.

Time Position Orientation Groundspeed Altitude Reporting Facility
EDT Latitude Longitude Course Direction KTS MPH feet Rate Location/Type
04:05PM -12.9100 -38.3320 90° East 82 94  Level FlightAware
04:05PM -12.9080 -38.3200 80° East 155 178 600 Level FlightAware
04:06PM -12.9050 -38.3050 78° East 170 196 400 1,680 Climbing FlightAware
04:06PM -12.9010 -38.2870 77° East 179 206 1,200 2,400 Climbing FlightAware
04:06PM -12.8980 -38.2710 79° East 168 193 2,100 2,460 Climbing FlightAware
04:07PM -12.8960 -38.2610 78° East 164 189 2,600 1,440 Climbing FlightAware
04:07PM -12.9070 -38.2460 127° Southeast 187 215 3,000 960 Climbing FlightAware
04:07PM -12.9140 -38.2440 164° South 200 230 3,100 540 Climbing FlightAware
04:07PM -12.9170 -38.2440 180° South 206 237 3,100 960 Level FlightAware
04:08PM -12.9410 -38.2590 211° Southwest 260 299 3,600 1,200 Climbing FlightAware
04:08PM -12.9430 -38.2630 243° Southwest 266 306 3,700 1,980 Climbing FlightAware
04:08PM -12.9470 -38.2730 248° West 277 319 4,000 2,520 Climbing FlightAware
04:08PM -12.9540 -38.2990 255° West 284 327 4,900 3,000 Climbing FlightAware
04:09PM -12.9590 -38.3200 256° West 285 328 5,800 2,880 Climbing FlightAware
04:09PM -12.9620 -38.3300 253° West 286 329 6,100 2,580 Climbing FlightAware
04:09PM -12.9730 -38.3580 248° West 292 336 7,100 2,580 Climbing FlightAware
04:09PM -12.9780 -38.3710 248° West 292 336 7,500 2,460 Climbing FlightAware
04:09PM -12.9880 -38.3870 237° Southwest 295 339 8,100 2,460 Climbing FlightAware
04:10PM -13.0040 -38.4110 236° Southwest 303 349 8,900 2,460 Climbing FlightAware
04:10PM -13.0220 -38.4380 236° Southwest 306 352 9,900 2,280 Climbing FlightAware
04:11PM -13.0510 -38.4830 237° Southwest 320 368 11,200 1,680 Climbing FlightAware
04:11PM -13.0630 -38.5030 238° Southwest 335 386 11,400 1,500 Climbing FlightAware
04:12PM -13.1070 -38.5730 237° Southwest 363 418 12,800 1,680 Climbing FlightAware
04:12PM -13.1370 -38.6210 237° Southwest 374 430 13,800 1,800 Climbing FlightAware
04:13PM -13.1740 -38.6800 237° Southwest 388 447 15,000 2,400 Climbing FlightAware
04:14PM -13.2050 -38.7300 238° Southwest 378 435 16,600 2,400 Climbing FlightAware
04:14PM -13.2400 -38.7860 237° Southwest 379 436 17,800 1,800 Climbing FlightAware
04:15PM -13.2710 -38.8360 237° Southwest 386 444 18,700 1,500 Climbing FlightAware
04:15PM -13.3070 -38.8930 237° Southwest 396 456 19,500 1,320 Climbing FlightAware
04:16PM -13.3400 -38.9470 238° Southwest 400 460 20,300 1,440 Climbing FlightAware
04:16PM -13.3760 -39.0050 237° Southwest 403 464 21,200 1,200 Climbing FlightAware
04:17PM -13.4090 -39.0580 237° Southwest 415 478 21,700 1,080 Climbing FlightAware
04:17PM -13.4330 -39.0940 236° Southwest 418 481 22,200 1,320 Climbing FlightAware
04:18PM -13.4530 -39.1120 221° Southwest 416 479 22,500 1,560 Climbing FlightAware
04:18PM -13.5210 -39.1620 216° Southwest 413 475 23,700 1,380 Climbing FlightAware
04:19PM -13.5780 -39.2040 216° Southwest 417 480 24,400 1,020 Climbing FlightAware
04:19PM -13.6260 -39.2390 215° Southwest 422 486 24,900 600 Climbing FlightAware
04:20PM -13.7060 -39.2970 215° Southwest 426 490 25,300 240 Climbing FlightAware
04:21PM -13.7570 -39.3340 215° Southwest 426 490 25,300  Level FlightAware
04:22PM -13.8180 -39.3780 215° Southwest 426 490 25,300  Level FlightAware
04:22PM -13.8680 -39.4140 215° Southwest 426 490 25,300  Level FlightAware
04:23PM -13.9180 -39.4500 215° Southwest 426 490 25,300  Level FlightAware
04:24PM -13.9690 -39.4870 215° Southwest 426 490 25,300 480 Level FlightAware
04:26PM -14.1360 -39.6145 217° Southwest  Level Estimated
04:27PM -14.2216 -39.6800 217° Southwest  Level Estimated
04:28PM -14.3071 -39.7455 217° Southwest  Level Estimated
04:29PM -14.3927 -39.8110 217° Southwest  Level Estimated
04:30PM -14.4782 -39.8767 217° Southwest  Level Estimated
04:31PM -14.5638 -39.9423 217° Southwest  Level Estimated
04:32PM -14.6493 -40.0080 217° Southwest  Level Estimated
04:32PM -14.8750 -40.1680 217° Southwest 449 517 30,000  Level FlightAware
04:32PM -14.8800 -40.1720 218° Southwest 449 517 30,000  Level FlightAware
04:32PM -14.8990 -40.1860 215° Southwest 449 517 30,000  Level FlightAware
04:32PM -14.9160 -40.1980 214° Southwest 449 517 30,000  Level FlightAware
04:32PM -14.9210 -40.2020 218° Southwest 449 517 30,000  Level FlightAware
04:33PM -14.9420 -40.2180 216° Southwest 449 517 30,000  Level FlightAware
04:33PM -14.9660 -40.2360 216° Southwest 449 517 30,000  Level FlightAware
04:33PM -14.9900 -40.2540 216° Southwest 450 518 30,000  Level FlightAware
04:33PM -15.0110 -40.2700 216° Southwest 454 522 30,000  Level FlightAware
04:33PM -15.0280 -40.2830 216° Southwest 455 524 30,000  Level FlightAware
04:34PM -15.0450 -40.2950 214° Southwest 455 524 30,000  Level FlightAware
04:34PM -15.0630 -40.3090 217° Southwest 455 524 30,000  Level FlightAware
04:35PM -15.1540 -40.3770 216° Southwest 454 522 30,000  Level FlightAware
04:35PM -15.2130 -40.4220 216° Southwest 453 521 30,000  Level FlightAware
04:36PM -15.2800 -40.4720 216° Southwest 452 520 30,000  Level FlightAware
04:37PM -15.3400 -40.5170 216° Southwest 451 519 30,000  Level FlightAware
04:37PM -15.4040 -40.5650 216° Southwest 454 522 30,000  Level FlightAware
04:38PM -15.4570 -40.6050 216° Southwest 452 520 30,000  Level FlightAware
04:38PM -15.5210 -40.6530 216° Southwest 451 519 30,000  Level FlightAware
04:39PM -15.5920 -40.7070 216° Southwest 450 518 30,000  Level FlightAware
04:40PM -15.6610 -40.7600 216° Southwest 449 517 30,000  Level FlightAware
04:40PM -15.7160 -40.8010 216° Southwest 449 517 30,000  Level FlightAware
04:41PM -15.7940 -40.8600 216° Southwest 449 517 30,000  Level FlightAware
04:42PM -15.8620 -40.9120 216° Southwest 444 511 30,000  Level FlightAware
04:42PM -15.9200 -40.9560 216° Southwest 444 511 30,000  Level FlightAware
04:43PM -15.9880 -41.0070 216° Southwest 444 511 30,000  Level FlightAware
04:44PM -16.0440 -41.0490 216° Southwest 443 510 30,000  Level FlightAware
04:44PM -16.1060 -41.0970 217° Southwest 443 510 30,000  Level FlightAware
04:45PM -16.1710 -41.1460 216° Southwest 443 510 30,000  Level FlightAware
04:45PM -16.2250 -41.1870 216° Southwest 443 510 30,000  Level FlightAware
04:46PM -16.2880 -41.2350 216° Southwest 441 507 30,000  Level FlightAware
04:47PM -16.3460 -41.2800 217° Southwest 441 507 30,000  Level FlightAware
04:47PM -16.3880 -41.3120 216° Southwest 441 507 30,000  Level FlightAware
04:48PM -16.4510 -41.3590 216° Southwest 441 507 30,000  Level FlightAware
04:48PM -16.5140 -41.4080 217° Southwest 441 507 30,000  Level FlightAware
04:49PM -16.5700 -41.4510 216° Southwest 441 507 30,000  Level FlightAware
04:49PM -16.6230 -41.4910 216° Southwest 441 507 30,000  Level FlightAware
04:50PM -16.6850 -41.5390 217° Southwest 441 507 30,000  Level FlightAware
04:51PM -16.7560 -41.5930 216° Southwest 441 507 30,000  Level FlightAware
04:51PM -16.8170 -41.6400 216° Southwest 440 506 30,000  Level FlightAware
04:52PM -16.8610 -41.6740 216° Southwest 440 506 30,000  Level FlightAware
04:53PM -16.9260 -41.7240 216° Southwest 440 506 30,000  Level FlightAware
04:53PM -16.9900 -41.7730 216° Southwest 440 506 30,000  Level FlightAware
04:54PM -17.0350 -41.8130 220° Southwest 439 505 30,000  Level FlightAware
04:54PM -17.0920 -41.8620 219° Southwest 439 505 30,000  Level FlightAware
04:55PM -17.1490 -41.9110 219° Southwest 439 505 30,000  Level FlightAware
04:55PM -17.2020 -41.9580 220° Southwest 439 505 30,000  Level FlightAware
04:56PM -17.2590 -42.0070 219° Southwest 439 505 30,000  Level FlightAware
04:57PM -17.3100 -42.0510 219° Southwest 439 505 30,000  Level FlightAware
04:57PM -17.3660 -42.1000 220° Southwest 439 505 30,000  Level FlightAware
04:58PM -17.4230 -42.1500 220° Southwest 439 505 30,000  Level FlightAware
04:58PM -17.4870 -42.2060 220° Southwest 438 504 30,000  Level FlightAware
04:59PM -17.5410 -42.2530 220° Southwest 437 503 30,000  Level FlightAware
05:00PM -17.5940 -42.3000 220° Southwest 438 504 30,000  Level FlightAware
05:00PM -17.6510 -42.3500 220° Southwest 438 504 30,000  Level FlightAware
05:01PM -17.7060 -42.3980 220° Southwest 437 503 30,000  Level FlightAware
05:01PM -17.7600 -42.4450 220° Southwest 437 503 30,000  Level FlightAware
05:02PM -17.8150 -42.4930 220° Southwest 437 503 30,000  Level FlightAware
05:03PM -17.8690 -42.5410 220° Southwest 436 502 30,000  Level FlightAware
05:03PM -17.9240 -42.5890 220° Southwest 436 502 30,000  Level FlightAware
05:04PM -17.9780 -42.6370 220° Southwest 436 502 30,000  Level FlightAware
05:04PM -18.0310 -42.6830 220° Southwest 436 502 30,000  Level FlightAware
05:05PM -18.0860 -42.7320 220° Southwest 437 503 30,000  Level FlightAware
05:05PM -18.1400 -42.7800 220° Southwest 437 503 30,000  Level FlightAware
05:06PM -18.1930 -42.8270 220° Southwest 437 503 30,000  Level FlightAware
05:07PM -18.2490 -42.8760 220° Southwest 437 503 30,000  Level FlightAware
05:07PM -18.3020 -42.9240 221° Southwest 436 502 30,000  Level FlightAware
05:08PM -18.3570 -42.9720 220° Southwest 436 502 30,000  Level FlightAware
05:08PM -18.4100 -43.0190 220° Southwest 435 501 30,000 -180 Level FlightAware
05:09PM -18.4650 -43.0670 220° Southwest 435 501 29,800 -2,100 Descending FlightAware
05:10PM -18.5250 -43.1210 220° Southwest 440 506 27,400 -3,900 Descending FlightAware
05:10PM -18.5730 -43.1640 220° Southwest 448 516 25,300 -3,720 Descending FlightAware
05:10PM -18.6050 -43.1930 221° Southwest 442 509 24,300 -3,000 Descending FlightAware
05:11PM -18.6920 -43.2710 220° Southwest 432 497 21,400 -2,940 Descending FlightAware
05:12PM -18.7330 -43.3070 220° Southwest 428 493 20,000 -2,760 Descending FlightAware
05:13PM -18.8030 -43.3690 220° Southwest 424 488 18,100 -2,760 Descending FlightAware
05:13PM -18.8550 -43.4160 221° Southwest 425 489 16,500 -2,100 Descending FlightAware
05:14PM -18.9150 -43.4690 220° Southwest 418 481 15,500 -1,320 Descending FlightAware
05:14PM -18.9590 -43.5090 221° Southwest 415 478 15,000 -960 Descending FlightAware
05:15PM -19.0100 -43.5540 220° Southwest 412 474 14,500 -840 Descending FlightAware
05:16PM -19.0680 -43.6080 221° Southwest 412 474 14,000 -1,320 Descending FlightAware
05:16PM -19.1050 -43.6530 229° Southwest 409 471 13,000 -2,160 Descending FlightAware
05:17PM -19.1470 -43.7060 230° Southwest 399 459 11,700 -1,620 Descending FlightAware
05:17PM -19.1930 -43.7630 229° Southwest 365 420 11,000 -960 Descending FlightAware
05:18PM -19.2240 -43.8020 230° Southwest 341 392 10,600 -780 Descending FlightAware
05:18PM -19.2590 -43.8450 229° Southwest 314 361 10,200 -840 Descending FlightAware
05:19PM -19.2720 -43.8620 231° Southwest 305 351 9,900 -1,380 Descending FlightAware
05:19PM -19.2950 -43.8900 229° Southwest 302 348 9,300 -1,500 Descending FlightAware
05:19PM -19.3130 -43.9130 230° Southwest 297 342 8,800 -1,500 Descending FlightAware
05:20PM -19.3350 -43.9400 229° Southwest 292 336 8,200 -1,500 Descending FlightAware
05:20PM -19.3530 -43.9620 229° Southwest 290 334 7,700 -1,680 Descending FlightAware
05:21PM -19.3790 -43.9950 230° Southwest 294 338 6,800 -1,500 Descending FlightAware
05:21PM -19.3920 -44.0110 229° Southwest 282 325 6,600 -1,800 Descending FlightAware
05:21PM -19.4120 -44.0360 230° Southwest 282 325 5,600 -2,280 Descending FlightAware
05:22PM -19.4320 -44.0560 223° Southwest 283 326 4,900 -1,560 Descending FlightAware
05:22PM -19.4430 -44.0630 211° Southwest 280 322 4,800 -420 Descending FlightAware
05:22PM -19.4650 -44.0750 207° Southwest 261 300 4,700 -180 Descending FlightAware
05:22PM -19.4810 -44.0840 208° Southwest 246 283 4,700  Level FlightAware
05:23PM -19.4860 -44.0860 201° Southwest 242 278 4,700  Level FlightAware
05:23PM -19.4920 -44.0860 180° South 235 270 4,700  Level FlightAware
05:23PM -19.5140 -44.0770 159° South 207 238 4,700  Level FlightAware
05:23PM -19.5320 -44.0620 142° Southeast 179 206 4,700 -300 Level FlightAware
05:24PM -19.5410 -44.0540 140° Southeast 170 196 4,500 -780 Descending FlightAware
05:24PM -19.5550 -44.0410 139° Southeast 150 173 4,200 -780 Descending FlightAware
05:24PM -19.5630 -44.0340 140° Southeast 141 162 4,000 -840 Descending FlightAware
05:25PM -19.5700 -44.0280 141° Southeast 137 158 3,800 -780 Descending FlightAware
05:25PM -19.5820 -44.0170 139° Southeast 135 155 3,500 -720 Descending FlightAware
05:25PM -19.5910 -44.0080 137° Southeast 135 155 3,300 -600 Descending FlightAware
05:26PM -19.6010 -43.9990 140° Southeast 135 155 3,100 -720 Descending FlightAware
05:26PM -19.6150 -43.9860 139° Southeast 135 155 2,700 -840 Descending FlightAware
05:27PM -19.6250 -43.9770 140° Southeast 140 161 2,400 -360 Descending FlightAware
05:27PM -19.6390 -43.9630 137° Southeast 137 158 2,400  Level FlightAware
05:32PM -19.6320 -43.9640 343° North 137 158 2,500  Climbing FlightAware
05:32PM -19.6430 -43.9550 142° Southeast 137 158 2,500  Level FlightAware
05:34PM -19.6320 -43.9640 322° Northwest 137 158 2,500  Level FlightAware
05:35PM -19.6430 -43.9550 142° Southeast 137 158 2,500  Level FlightAware
05:38PM -19.6320 -43.9640 322° Northwest 137 158 2,500  Level FlightAware
05:39PM -19.6430 -43.9550 142° Southeast 137 158 2,500  Level FlightAware
05:41PM -19.6320 -43.9640 322° Northwest 137 158 2,500  Level FlightAware
05:41PM -19.6430 -43.9550 142° Southeast 137 158 2,500  Level FlightAware
05:42PM -19.6320 -43.9640 322° Northwest 137 158 2,500  Level FlightAware
05:42PM -19.6430 -43.9540 139° Southeast 137 158 2,500  Level FlightAware
05:45PM -19.6320 -43.9640 319° Northwest 137 158 2,500  Level FlightAware
05:45PM -19.6440 -43.9540 142° Southeast 137 158 2,500  Level FlightAware
05:46PM -19.6320 -43.9640 322° Northwest 137 158 2,500  Level FlightAware
05:47PM -19.6440 -43.9540 142° Southeast 137 158 2,500  Level FlightAware